createdAt,value
2019-05-07T00:00:36.641Z,24.27
2019-05-07T00:03:06.103Z,31.63
2019-05-07T00:05:35.493Z,26.73
2019-05-07T00:08:05.852Z,29.52
2019-05-07T00:10:35.193Z,25.57
2019-05-07T00:13:04.611Z,32.45
2019-05-07T00:15:33.959Z,27.05
2019-05-07T00:18:03.418Z,28.67
2019-05-07T00:20:32.956Z,29.92
2019-05-07T00:23:02.954Z,29.67
2019-05-07T00:25:33.008Z,26.50
2019-05-07T00:28:02.959Z,30.85
2019-05-07T00:30:33.243Z,29.27
2019-05-07T00:33:02.955Z,27.70
2019-05-07T00:35:42.919Z,29.05
2019-05-07T00:38:16.720Z,30.03
2019-05-07T00:40:59.671Z,33.80
2019-05-07T00:43:32.207Z,25.48
2019-05-07T00:48:32.794Z,28.50
2019-05-07T00:51:20.036Z,29.63
2019-05-07T00:53:49.464Z,27.13
2019-05-07T00:56:18.910Z,29.65
2019-05-07T00:58:48.323Z,28.73
2019-05-07T01:01:17.868Z,30.15
2019-05-07T01:03:48.152Z,28.27
2019-05-07T01:06:17.566Z,30.35
2019-05-07T01:08:47.040Z,28.27
2019-05-07T01:11:16.382Z,31.07
2019-05-07T01:13:45.835Z,31.48
2019-05-07T01:16:15.324Z,31.77
2019-05-07T01:18:44.700Z,31.12
2019-05-07T01:21:14.076Z,29.87
2019-05-07T01:23:43.445Z,31.70
2019-05-07T01:26:12.856Z,32.88
2019-05-07T01:29:02.950Z,33.18
2019-05-07T01:31:35.409Z,30.35
2019-05-07T01:34:16.324Z,32.42
2019-05-07T01:36:45.734Z,28.27
2019-05-07T01:39:15.104Z,28.02
2019-05-07T01:41:44.471Z,31.60
2019-05-07T01:44:13.831Z,31.27
2019-05-07T01:46:43.233Z,30.25
2019-05-07T01:49:12.765Z,31.82
2019-05-07T01:51:42.400Z,27.95
2019-05-07T01:54:12.943Z,32.85
2019-05-07T01:56:42.816Z,32.83
2019-05-07T01:59:12.330Z,28.92
2019-05-07T02:01:42.978Z,30.10
2019-05-07T02:04:14.253Z,33.03
2019-05-07T02:07:02.862Z,34.53
2019-05-07T02:09:34.131Z,34.85
2019-05-07T02:12:05.235Z,42.03
2019-05-07T02:14:34.640Z,38.73
2019-05-07T02:17:04.129Z,38.58
2019-05-07T02:19:33.562Z,41.73
2019-05-07T02:22:03.092Z,38.88
2019-05-07T02:24:33.900Z,40.88
2019-05-07T02:27:03.516Z,40.30
2019-05-07T02:29:32.932Z,41.77
2019-05-07T02:32:04.658Z,42.95
2019-05-07T02:34:34.193Z,41.23
2019-05-07T02:37:05.785Z,43.75
2019-05-07T02:39:39.468Z,42.20
2019-05-07T02:42:12.911Z,38.33
2019-05-07T02:44:59.903Z,39.38
2019-05-07T02:47:33.077Z,41.08
2019-05-07T02:50:03.852Z,43.45
2019-05-07T02:52:53.357Z,37.40
2019-05-07T02:55:23.333Z,41.18
2019-05-07T02:57:53.965Z,40.78
2019-05-07T03:00:24.419Z,38.65
2019-05-07T03:02:54.048Z,43.05
2019-05-07T03:05:23.481Z,41.32
2019-05-07T03:07:53.609Z,42.67
2019-05-07T03:10:23.948Z,43.28
2019-05-07T03:12:53.924Z,37.38
2019-05-07T03:15:24.196Z,40.23
2019-05-07T03:17:54.066Z,41.25
2019-05-07T03:20:28.431Z,38.60
2019-05-07T03:22:58.765Z,38.08
2019-05-07T03:25:29.747Z,43.73
2019-05-07T03:27:59.109Z,38.40
2019-05-07T03:30:39.393Z,39.53
2019-05-07T03:33:16.580Z,38.25
2019-05-07T03:35:47.728Z,36.50
2019-05-07T03:38:17.075Z,41.35
2019-05-07T03:40:49.304Z,37.60
2019-05-07T03:45:48.889Z,41.33
2019-05-07T03:48:19.867Z,40.83
2019-05-07T03:50:49.237Z,37.50
2019-05-07T03:53:18.590Z,41.80
2019-05-07T03:55:48.006Z,40.28
2019-05-07T03:58:17.774Z,38.40
2019-05-07T04:00:47.210Z,40.50
2019-05-07T04:03:19.259Z,43.55
2019-05-07T04:05:47.711Z,39.33
2019-05-07T04:08:17.139Z,43.67
2019-05-07T04:10:46.610Z,39.95
2019-05-07T04:13:16.005Z,37.53
2019-05-07T04:15:45.442Z,43.65
2019-05-07T04:18:14.862Z,44.93
2019-05-07T04:20:44.285Z,39.42
2019-05-07T04:23:14.231Z,39.87
2019-05-07T04:25:45.503Z,39.08
2019-05-07T04:28:28.412Z,43.43
2019-05-07T04:30:58.559Z,49.70
2019-05-07T04:33:29.619Z,38.00
2019-05-07T04:36:03.335Z,46.95
2019-05-07T04:38:33.339Z,42.27
2019-05-07T04:41:03.815Z,44.95
2019-05-07T04:43:33.918Z,45.40
2019-05-07T04:46:03.557Z,40.83
2019-05-07T04:48:34.133Z,43.50
2019-05-07T04:51:05.351Z,43.38
2019-05-07T04:53:34.715Z,45.50
2019-05-07T04:56:04.323Z,47.55
2019-05-07T04:58:34.094Z,43.50
2019-05-07T05:01:05.313Z,42.40
2019-05-07T05:03:38.641Z,41.07
2019-05-07T05:06:05.994Z,41.40
2019-05-07T05:08:35.416Z,46.37
2019-05-07T05:11:04.772Z,44.18
2019-05-07T05:13:34.223Z,46.98
2019-05-07T05:16:05.943Z,46.80
2019-05-07T05:18:35.314Z,40.67
2019-05-07T05:21:09.451Z,47.90
2019-05-07T05:23:52.385Z,48.85
2019-05-07T05:26:21.992Z,48.17
2019-05-07T05:28:52.522Z,47.43
2019-05-07T05:31:22.392Z,48.28
2019-05-07T05:33:52.681Z,50.45
2019-05-07T05:36:22.408Z,46.90
2019-05-07T05:38:52.877Z,48.95
2019-05-07T05:41:23.472Z,49.30
2019-05-07T05:43:54.459Z,50.10
2019-05-07T05:46:25.469Z,47.75
2019-05-07T05:48:54.840Z,45.45
2019-05-07T05:51:34.649Z,48.73
2019-05-07T05:54:18.863Z,47.33
2019-05-07T05:56:51.946Z,45.52
2019-05-07T05:59:48.138Z,45.63
2019-05-07T06:02:23.525Z,41.55
2019-05-07T06:04:54.529Z,44.65
2019-05-07T06:07:42.772Z,40.88
2019-05-07T06:10:25.885Z,41.13
2019-05-07T06:12:56.895Z,37.25
2019-05-07T06:15:33.855Z,34.77
2019-05-07T06:18:17.916Z,36.88
2019-05-07T06:20:52.790Z,43.78
2019-05-07T06:23:23.810Z,37.17
2019-05-07T06:25:53.152Z,35.23
2019-05-07T06:28:22.592Z,33.80
2019-05-07T06:30:52.752Z,35.85
2019-05-07T06:33:23.122Z,37.42
2019-05-07T06:35:52.655Z,32.53
2019-05-07T06:38:23.178Z,39.03
2019-05-07T06:40:56.721Z,32.00
2019-05-07T06:43:27.726Z,36.30
2019-05-07T06:45:58.729Z,32.00
2019-05-07T06:48:38.888Z,30.05
2019-05-07T06:50:59.823Z,28.53
2019-05-07T06:53:33.303Z,26.52
2019-05-07T06:56:03.883Z,27.80
2019-05-07T06:58:44.043Z,29.12
2019-05-07T07:01:17.766Z,26.37
2019-05-07T07:04:05.166Z,29.67
2019-05-07T07:06:36.215Z,26.45
2019-05-07T07:09:24.899Z,31.67
2019-05-07T07:11:55.991Z,25.68
2019-05-07T07:14:27.061Z,29.37
2019-05-07T07:16:56.505Z,29.80
2019-05-07T07:19:27.433Z,21.93
2019-05-07T07:21:56.839Z,24.23
2019-05-07T07:24:26.205Z,29.23
2019-05-07T07:26:55.589Z,23.27
2019-05-07T07:29:26.576Z,28.00
2019-05-07T07:31:57.602Z,26.27
2019-05-07T07:34:28.427Z,25.33
2019-05-07T07:37:06.012Z,25.87
2019-05-07T07:39:32.320Z,29.10
2019-05-07T07:42:03.450Z,23.25
2019-05-07T07:44:33.099Z,26.93
2019-05-07T07:47:02.885Z,21.12
2019-05-07T07:49:33.292Z,24.40
2019-05-07T07:52:03.304Z,24.52
2019-05-07T07:54:32.796Z,21.57
2019-05-07T07:57:06.461Z,21.05
2019-05-07T07:59:49.777Z,22.27
2019-05-07T08:02:26.351Z,22.82
2019-05-07T08:04:57.319Z,26.77
2019-05-07T08:07:26.709Z,21.05
2019-05-07T08:09:56.065Z,24.25
2019-05-07T08:12:25.420Z,23.07
2019-05-07T08:15:13.016Z,16.62
2019-05-07T08:19:57.429Z,15.85
2019-05-07T08:22:26.807Z,15.98
2019-05-07T08:24:57.206Z,22.30
2019-05-07T08:27:26.688Z,24.27
2019-05-07T08:29:56.127Z,18.25
2019-05-07T08:32:36.825Z,16.00
2019-05-07T08:35:16.065Z,17.37
2019-05-07T08:37:45.423Z,18.10
2019-05-07T08:40:14.867Z,20.77
2019-05-07T08:42:44.289Z,16.85
2019-05-07T08:45:32.647Z,18.37
2019-05-07T08:48:06.350Z,22.20
2019-05-07T08:50:35.785Z,15.13
2019-05-07T08:53:05.895Z,18.40
2019-05-07T08:55:35.268Z,15.50
2019-05-07T08:58:06.190Z,16.30
2019-05-07T09:00:35.633Z,17.10
2019-05-07T09:03:18.616Z,17.80
2019-05-07T09:05:36.433Z,14.47
2019-05-07T09:08:05.808Z,15.88
2019-05-07T09:10:35.187Z,14.87
2019-05-07T09:13:05.466Z,17.40
2019-05-07T09:15:34.917Z,20.40
2019-05-07T09:18:05.251Z,13.40
2019-05-07T09:20:36.241Z,17.60
2019-05-07T09:23:05.758Z,14.70
2019-05-07T09:25:36.771Z,13.72
2019-05-07T09:30:52.822Z,17.48
2019-05-07T09:33:25.196Z,13.80
2019-05-07T09:35:55.696Z,17.50
2019-05-07T09:38:25.038Z,14.87
2019-05-07T09:40:56.850Z,19.07
2019-05-07T09:43:28.428Z,16.15
2019-05-07T09:45:57.797Z,18.42
2019-05-07T09:48:27.213Z,14.55
2019-05-07T09:50:57.798Z,12.85
2019-05-07T09:53:27.368Z,16.50
2019-05-07T09:55:56.727Z,14.13
2019-05-07T09:58:35.658Z,18.02
2019-05-07T10:00:57.179Z,21.10
2019-05-07T10:03:28.095Z,24.30
2019-05-07T10:05:57.471Z,21.70
2019-05-07T10:08:26.843Z,25.72
2019-05-07T10:10:56.267Z,21.85
2019-05-07T10:13:43.532Z,19.87
2019-05-07T10:16:14.607Z,17.25
2019-05-07T10:18:44.055Z,20.70
2019-05-07T10:21:13.539Z,17.30
2019-05-07T10:23:43.039Z,13.38
2019-05-07T10:26:12.493Z,13.48
2019-05-07T10:28:42.475Z,14.65
2019-05-07T10:31:13.039Z,15.23
2019-05-07T10:33:43.469Z,13.95
2019-05-07T10:36:12.852Z,18.10
2019-05-07T10:38:42.211Z,17.23
2019-05-07T10:41:12.260Z,17.60
2019-05-07T10:43:42.844Z,18.52
2019-05-07T10:46:17.225Z,17.65
2019-05-07T10:48:57.364Z,19.95
2019-05-07T10:51:26.868Z,30.65
2019-05-07T10:53:58.715Z,23.13
2019-05-07T10:56:28.156Z,25.87
2019-05-07T10:58:57.529Z,22.10
2019-05-07T11:01:28.540Z,24.23
2019-05-07T11:03:57.926Z,16.17
2019-05-07T11:06:32.012Z,26.17
2019-05-07T11:09:01.148Z,21.62
2019-05-07T11:11:32.193Z,20.93
2019-05-07T11:14:02.687Z,15.83
2019-05-07T11:16:33.789Z,22.50
2019-05-07T11:19:03.271Z,20.50
2019-05-07T11:21:33.614Z,24.32
2019-05-07T11:24:03.569Z,23.70
2019-05-07T11:26:33.162Z,22.80
2019-05-07T11:29:03.774Z,21.93
2019-05-07T11:31:33.341Z,20.10
2019-05-07T11:34:03.058Z,26.70
2019-05-07T11:36:34.398Z,21.48
2019-05-07T11:39:04.821Z,18.83
2019-05-07T11:41:37.548Z,18.42
2019-05-07T11:44:12.438Z,21.33
2019-05-07T11:46:44.457Z,19.07
2019-05-07T11:49:15.681Z,19.07
2019-05-07T11:51:49.183Z,21.07
2019-05-07T11:54:18.563Z,20.72
2019-05-07T11:56:47.928Z,20.92
2019-05-07T11:59:17.303Z,17.82
2019-05-07T12:01:48.373Z,18.23
2019-05-07T12:04:18.828Z,23.38
2019-05-07T12:06:48.211Z,21.87
2019-05-07T12:09:17.590Z,17.10
2019-05-07T12:11:47.014Z,15.65
2019-05-07T12:14:28.033Z,17.00
2019-05-07T12:16:47.437Z,22.63
2019-05-07T12:19:17.027Z,13.43
2019-05-07T12:21:46.631Z,18.48
2019-05-07T12:24:16.522Z,19.25
2019-05-07T12:26:47.193Z,17.10
2019-05-07T12:29:16.580Z,20.80
2019-05-07T12:31:52.367Z,18.20
2019-05-07T12:34:24.142Z,23.73
2019-05-07T12:36:53.568Z,16.95
2019-05-07T12:39:23.004Z,13.93
2019-05-07T12:41:52.566Z,16.37
2019-05-07T12:44:22.261Z,19.33
2019-05-07T12:46:53.430Z,18.20
2019-05-07T12:49:22.977Z,13.70
2019-05-07T12:52:12.556Z,14.07
2019-05-07T12:54:52.470Z,17.15
2019-05-07T12:57:22.116Z,12.85
2019-05-07T12:59:52.955Z,10.20
2019-05-07T13:02:36.833Z,15.15
2019-05-07T13:04:58.149Z,20.90
2019-05-07T13:07:29.244Z,18.45
2019-05-07T13:12:27.099Z,19.73
2019-05-07T13:14:56.459Z,12.98
2019-05-07T13:17:25.908Z,16.20
2019-05-07T13:19:55.336Z,14.80
2019-05-07T13:31:07.510Z,14.50
2019-05-07T13:33:38.226Z,12.68
2019-05-07T13:36:07.953Z,12.70
2019-05-07T13:38:48.200Z,15.58
2019-05-07T13:41:24.906Z,17.32
2019-05-07T13:44:14.000Z,11.78
2019-05-07T13:46:45.037Z,16.90
2019-05-07T13:49:14.690Z,12.50
2019-05-07T13:51:44.629Z,15.65
2019-05-07T13:54:14.209Z,13.27
2019-05-07T13:56:43.733Z,12.47
2019-05-07T13:59:13.531Z,11.63
2019-05-07T14:01:55.220Z,16.27
2019-05-07T14:04:24.639Z,15.05
2019-05-07T14:06:54.150Z,14.23
2019-05-07T14:09:25.266Z,15.53
2019-05-07T14:11:54.760Z,18.07
2019-05-07T14:14:24.204Z,14.63
2019-05-07T14:16:53.696Z,15.50
2019-05-07T14:19:23.173Z,15.87
2019-05-07T14:21:53.225Z,20.82
2019-05-07T14:24:22.699Z,17.43
2019-05-07T14:26:52.975Z,14.80
2019-05-07T14:29:24.680Z,24.73
2019-05-07T14:31:58.027Z,16.32
2019-05-07T14:34:34.184Z,12.07
2019-05-07T14:37:06.669Z,13.90
2019-05-07T14:39:37.786Z,13.00
2019-05-07T14:47:22.492Z,12.15
2019-05-07T14:49:52.933Z,16.05
2019-05-07T14:52:32.607Z,12.90
2019-05-07T14:54:53.996Z,14.83
2019-05-07T14:57:23.379Z,16.45
2019-05-07T14:59:52.770Z,16.65
2019-05-07T15:02:23.673Z,21.02
2019-05-07T15:04:53.319Z,15.60
2019-05-07T15:07:22.856Z,13.90
2019-05-07T15:09:52.451Z,15.78
2019-05-07T15:12:23.379Z,14.18
2019-05-07T15:14:53.012Z,14.73
2019-05-07T15:17:37.374Z,18.90
2019-05-07T15:20:08.481Z,13.65
2019-05-07T15:22:49.200Z,14.47
2019-05-07T15:25:13.991Z,13.37
2019-05-07T15:27:46.591Z,14.83
2019-05-07T15:30:16.268Z,15.70
2019-05-07T15:32:45.636Z,11.12
2019-05-07T15:35:15.257Z,13.60
2019-05-07T15:37:45.712Z,13.60
2019-05-07T15:40:15.618Z,11.83
2019-05-07T15:42:46.697Z,15.30
2019-05-07T15:45:17.151Z,19.20
2019-05-07T15:47:48.219Z,13.43
2019-05-07T15:50:23.059Z,18.37
2019-05-07T15:52:58.384Z,13.88
2019-05-07T15:55:27.387Z,14.40
2019-05-07T15:57:57.450Z,17.75
2019-05-07T16:00:28.776Z,20.43
2019-05-07T16:02:59.856Z,13.83
2019-05-07T16:05:29.400Z,18.20
2019-05-07T16:07:58.833Z,15.83
2019-05-07T16:10:28.272Z,18.00
2019-05-07T16:12:57.788Z,14.67
2019-05-07T16:15:27.171Z,12.65
2019-05-07T16:18:02.809Z,17.32
2019-05-07T16:20:32.633Z,16.70
2019-05-07T16:23:14.392Z,16.73
2019-05-07T16:25:34.272Z,14.33
2019-05-07T16:28:04.933Z,11.70
2019-05-07T16:30:37.230Z,13.08
2019-05-07T16:33:06.660Z,14.07
2019-05-07T16:35:36.109Z,12.15
2019-05-07T16:38:06.627Z,13.85
2019-05-07T16:40:36.014Z,14.15
2019-05-07T16:43:06.047Z,13.96
2019-05-07T16:45:39.099Z,18.42
2019-05-07T16:48:08.194Z,13.60
2019-05-07T16:50:39.109Z,13.48
2019-05-07T16:53:13.404Z,10.83
2019-05-07T16:55:42.977Z,14.95
2019-05-07T16:58:34.561Z,19.65
2019-05-07T17:01:03.287Z,15.78
2019-05-07T17:03:34.307Z,19.40
2019-05-07T17:06:03.672Z,15.30
2019-05-07T17:08:38.460Z,15.48
2019-05-07T17:11:07.874Z,13.35
2019-05-07T17:13:37.447Z,16.15
2019-05-07T17:16:06.828Z,19.80
2019-05-07T17:18:36.193Z,19.07
2019-05-07T17:21:07.832Z,20.25
2019-05-07T17:26:07.606Z,15.13
2019-05-07T17:28:37.084Z,23.62
2019-05-07T17:31:06.482Z,14.95
2019-05-07T17:33:35.917Z,15.78
2019-05-07T17:36:05.424Z,18.37
2019-05-07T17:38:34.934Z,20.77
2019-05-07T17:41:13.645Z,18.65
2019-05-07T17:43:35.431Z,19.00
2019-05-07T17:46:05.504Z,16.35
2019-05-07T17:48:38.631Z,19.05
2019-05-07T17:51:09.628Z,16.48
2019-05-07T17:53:39.084Z,17.13
2019-05-07T17:56:10.096Z,13.63
2019-05-07T17:58:39.552Z,21.23
2019-05-07T18:01:09.115Z,19.50
2019-05-07T18:03:42.641Z,14.65
2019-05-07T18:06:12.481Z,18.35
2019-05-07T18:08:42.250Z,15.33
2019-05-07T18:11:20.848Z,13.83
2019-05-07T18:13:42.841Z,19.33
2019-05-07T18:16:26.051Z,23.75
2019-05-07T18:18:55.412Z,20.23
2019-05-07T18:21:26.395Z,16.50
2019-05-07T18:23:55.776Z,20.10
2019-05-07T18:26:29.991Z,19.42
2019-05-07T18:28:56.293Z,22.97
2019-05-07T18:31:33.293Z,25.08
2019-05-07T18:34:02.782Z,19.23
2019-05-07T18:36:32.186Z,21.75
2019-05-07T18:39:01.758Z,22.30
2019-05-07T18:41:34.465Z,21.37
2019-05-07T18:44:12.301Z,18.60
2019-05-07T18:49:03.695Z,22.15
2019-05-07T18:51:33.080Z,19.37
2019-05-07T18:54:02.562Z,18.90
2019-05-07T18:56:32.008Z,22.07
2019-05-07T18:59:02.120Z,16.95
2019-05-07T19:01:33.417Z,18.52
2019-05-07T19:04:02.794Z,20.33
2019-05-07T19:06:32.157Z,24.23
2019-05-07T19:09:01.623Z,29.10
2019-05-07T19:11:32.624Z,20.12
2019-05-07T19:14:03.015Z,25.70
2019-05-07T19:16:32.718Z,22.27
2019-05-07T19:19:03.114Z,19.20
2019-05-07T19:21:32.567Z,22.07
2019-05-07T19:24:02.382Z,24.45
2019-05-07T19:26:32.107Z,23.70
2019-05-07T19:29:02.602Z,21.68
2019-05-07T19:31:32.626Z,40.60
2019-05-07T19:34:03.041Z,24.57
2019-05-07T19:36:34.757Z,29.98
2019-05-07T19:39:05.566Z,24.60
2019-05-07T19:41:37.209Z,31.70
2019-05-07T19:44:06.622Z,26.25
2019-05-07T19:46:37.950Z,25.57
2019-05-07T19:49:07.366Z,27.17
2019-05-07T19:51:36.967Z,24.67
2019-05-07T19:54:06.335Z,29.55
2019-05-07T19:56:35.837Z,27.27
2019-05-07T19:59:06.138Z,27.35
2019-05-07T20:01:37.140Z,24.23
2019-05-07T20:04:07.714Z,25.00
2019-05-07T20:06:37.147Z,22.15
2019-05-07T20:09:12.442Z,29.25
2019-05-07T20:11:49.031Z,34.85
2019-05-07T20:14:22.904Z,26.97
2019-05-07T20:16:53.146Z,27.10
2019-05-07T20:19:23.860Z,32.83
2019-05-07T20:21:53.317Z,23.83
2019-05-07T20:24:22.795Z,29.40
2019-05-07T20:26:52.748Z,24.02
2019-05-07T20:29:23.016Z,26.33
2019-05-07T20:31:53.250Z,29.87
2019-05-07T20:34:24.017Z,28.60
2019-05-07T20:36:54.044Z,24.23
2019-05-07T20:39:23.652Z,25.80
2019-05-07T20:41:53.091Z,24.90
2019-05-07T20:44:25.521Z,22.70
2019-05-07T20:46:57.304Z,33.13
2019-05-07T20:51:55.192Z,26.33
2019-05-07T20:54:32.310Z,31.70
2019-05-07T20:57:03.130Z,24.15
2019-05-07T20:59:36.913Z,24.93
2019-05-07T21:02:06.337Z,33.00
2019-05-07T21:04:35.857Z,32.30
2019-05-07T21:07:06.428Z,27.42
2019-05-07T21:09:35.888Z,28.60
2019-05-07T21:12:06.072Z,31.28
2019-05-07T21:14:35.564Z,26.60
2019-05-07T21:17:07.962Z,30.08
2019-05-07T21:19:37.126Z,30.00
2019-05-07T21:22:06.643Z,26.35
2019-05-07T21:24:36.078Z,27.32
2019-05-07T21:27:06.267Z,32.33
2019-05-07T21:29:36.507Z,26.20
2019-05-07T21:32:07.541Z,30.52
2019-05-07T21:34:36.896Z,30.72
2019-05-07T21:37:08.465Z,35.68
2019-05-07T21:39:37.336Z,30.80
2019-05-07T21:42:06.783Z,29.05
2019-05-07T21:44:37.216Z,30.88
2019-05-07T21:47:06.572Z,31.07
2019-05-07T21:49:35.963Z,28.27
2019-05-07T21:52:06.962Z,35.70
2019-05-07T21:54:37.979Z,27.17
2019-05-07T21:57:12.777Z,31.15
2019-05-07T21:59:43.265Z,29.27
2019-05-07T22:02:22.043Z,33.70
2019-05-07T22:04:52.939Z,27.85
2019-05-07T22:07:22.881Z,35.13
2019-05-07T22:09:54.136Z,32.58
2019-05-07T22:12:23.432Z,29.40
2019-05-07T22:14:55.404Z,33.40
2019-05-07T22:19:53.307Z,35.52
2019-05-07T22:22:24.277Z,32.00
2019-05-07T22:24:54.079Z,29.07
2019-05-07T22:27:25.051Z,38.57
2019-05-07T22:29:54.507Z,33.13
2019-05-07T22:32:44.016Z,29.37
2019-05-07T22:35:24.011Z,32.83
2019-05-07T22:38:13.472Z,31.48
2019-05-07T22:40:44.555Z,29.77
2019-05-07T22:43:16.684Z,34.40
2019-05-07T22:45:46.180Z,32.25
2019-05-07T22:48:17.149Z,30.32
2019-05-07T22:50:46.494Z,25.35
2019-05-07T22:53:15.877Z,28.23
2019-05-07T22:55:45.239Z,28.62
2019-05-07T22:58:22.207Z,28.07
2019-05-07T23:01:02.541Z,26.35
2019-05-07T23:03:32.358Z,37.80
2019-05-07T23:06:07.618Z,25.95
2019-05-07T23:08:38.058Z,31.68
2019-05-07T23:11:08.218Z,28.25
2019-05-07T23:13:37.646Z,30.80
2019-05-07T23:16:07.004Z,28.95
2019-05-07T23:18:36.352Z,30.37
2019-05-07T23:21:05.737Z,27.17
2019-05-07T23:23:35.160Z,29.57
2019-05-07T23:26:06.074Z,32.55
2019-05-07T23:28:35.427Z,33.33
2019-05-07T23:31:07.367Z,31.60
2019-05-07T23:33:36.802Z,30.43
2019-05-07T23:36:06.155Z,35.58
2019-05-07T23:38:35.511Z,35.03
2019-05-07T23:41:06.595Z,33.38
2019-05-07T23:43:36.090Z,34.23
2019-05-07T23:46:05.931Z,29.90
2019-05-07T23:48:35.280Z,29.42
2019-05-07T23:51:04.635Z,30.20
2019-05-07T23:53:33.999Z,27.70
2019-05-07T23:56:03.379Z,36.03
2019-05-07T23:58:32.813Z,24.43
